Time;durP1;ratioP1;P1;durP2;ratioP2;P2;SDS_P1;SDS_P2;PMS_P1;PMS_P2;Temp;Humidity;BMP_temperature;BMP_pressure;BME280_temperature;BME280_humidity;BME280_pressure;Samples;Min_cycle;Max_cycle;Signal;HPM_P1;HPM_P2
2024/04/14 00:00:09;;;;;;;;;;;;;;;18.87;49.42;100235.28;5452901;26;19928;-80
2024/04/14 00:02:34;;;;;;;;;;;;;;;18.83;50.23;100229.53;5454915;26;19993;-80
2024/04/14 00:05:00;;;;;;;;;;;;;;;18.79;49.75;100233.66;5483106;26;19935;-80
2024/04/14 00:07:25;;;;;;;;;;;;;;;18.72;50.76;100224.84;5454607;26;19936;-81
2024/04/14 00:09:50;;;;;;;;;;;;;;;18.73;50.68;100223.81;5454574;26;19935;-80
2024/04/14 00:12:16;;;;;;;;;;;;;;;18.68;50.62;100232.50;5452786;26;19929;-80
2024/04/14 00:14:41;;;;;;;;;;;;;;;18.61;50.24;100230.84;5454726;26;19928;-80
2024/04/14 00:17:06;;;;;;;;;;;;;;;18.51;50.01;100230.47;5452202;26;20366;-81
2024/04/14 00:19:32;;;;;;;;;;;;;;;18.45;50.81;100218.75;5454035;26;20317;-80
2024/04/14 00:21:57;;;;;;;;;;;;;;;18.41;50.74;100226.38;5452281;26;19940;-81
2024/04/14 00:24:22;;;;;;;;;;;;;;;18.38;49.91;100228.66;5454286;26;19928;-81
2024/04/14 00:26:48;;;;;;;;;;;;;;;18.36;49.38;100228.88;5453665;26;19928;-81
2024/04/14 00:29:13;;;;;;;;;;;;;;;18.31;49.94;100235.91;5454219;26;19993;-81
2024/04/14 00:31:39;;;;;;;;;;;;;;;18.29;50.66;100237.97;5452229;26;19936;-81
2024/04/14 00:34:04;;;;;;;;;;;;;;;18.26;50.17;100244.56;5482366;26;20390;-81
2024/04/14 00:36:29;;;;;;;;;;;;;;;18.24;49.50;100229.75;5454073;26;19935;-81
2024/04/14 00:38:54;;;;;;;;;;;;;;;18.17;51.14;100236.97;5452002;26;19936;-80
2024/04/14 00:41:20;;;;;;;;;;;;;;;18.12;50.87;100240.28;5453514;26;19948;-81
2024/04/14 00:43:45;;;;;;;;;;;;;;;18.17;49.14;100243.13;5453846;26;20611;-80
2024/04/14 00:46:11;;;;;;;;;;;;;;;18.14;49.84;100230.19;5482214;26;19935;-80
2024/04/14 00:48:36;;;;;;;;;;;;;;;18.15;50.41;100236.38;5451894;26;19932;-80
2024/04/14 00:51:02;;;;;;;;;;;;;;;18.07;50.06;100242.75;5454074;26;19929;-80
2024/04/14 00:53:27;;;;;;;;;;;;;;;18.01;50.25;100228.38;5451785;26;19928;-80
2024/04/14 00:55:53;;;;;;;;;;;;;;;17.98;50.28;100234.16;5453224;26;20258;-80
2024/04/14 00:58:19;;;;;;;;;;;;;;;17.97;49.77;100232.50;5451252;26;20358;-81
2024/04/14 01:00:44;;;;;;;;;;;;;;;17.90;50.29;100226.34;5456104;26;19935;-79
2024/04/14 01:03:10;;;;;;;;;;;;;;;17.85;50.36;100228.00;5454994;26;19928;-80
2024/04/14 01:05:35;;;;;;;;;;;;;;;17.79;50.32;100218.94;5455192;26;19997;-79
2024/04/14 01:08:01;;;;;;;;;;;;;;;17.74;49.85;100222.25;5455074;26;19929;-81
2024/04/14 01:10:28;;;;;;;;;;;;;;;17.69;50.96;100224.72;5456985;26;20378;-81
2024/04/14 01:12:54;;;;;;;;;;;;;;;17.68;50.41;100227.59;5485068;26;19936;-81
2024/04/14 01:15:19;;;;;;;;;;;;;;;17.61;50.92;100219.56;5456820;26;19928;-81
2024/04/14 01:17:44;;;;;;;;;;;;;;;17.57;50.39;100215.66;5454673;26;20262;-81
2024/04/14 01:20:10;;;;;;;;;;;;;;;17.50;51.36;100214.84;5456422;26;19928;-79
2024/04/14 01:22:35;;;;;;;;;;;;;;;17.49;50.76;100223.88;5454766;26;19935;-80
2024/04/14 01:25:06;;;;;;;;;;;;;;;17.48;49.89;100220.41;5457170;26;19935;-80
2024/04/14 01:27:31;;;;;;;;;;;;;;;17.47;51.02;100215.25;5454500;26;19997;-80
2024/04/14 01:29:56;;;;;;;;;;;;;;;17.45;51.19;100212.81;5456855;26;19936;-81
2024/04/14 01:32:22;;;;;;;;;;;;;;;17.50;50.39;100220.19;5456715;26;20018;-80
2024/04/14 01:34:47;;;;;;;;;;;;;;;17.45;50.86;100223.47;5456528;26;19928;-80
2024/04/14 01:37:12;;;;;;;;;;;;;;;17.43;51.09;100219.38;5454879;26;19928;-81
2024/04/14 01:39:38;;;;;;;;;;;;;;;17.46;50.50;100218.97;5454494;26;19929;-81
2024/04/14 01:42:03;;;;;;;;;;;;;;;17.46;50.27;100221.63;5454915;26;20451;-81
2024/04/14 01:44:28;;;;;;;;;;;;;;;17.46;50.50;100226.97;5485072;26;19929;-81
2024/04/14 01:46:54;;;;;;;;;;;;;;;17.43;50.92;100220.19;5456559;26;19998;-80
2024/04/14 01:49:19;;;;;;;;;;;;;;;17.40;51.47;100230.47;5456296;26;19929;-81
2024/04/14 01:51:44;;;;;;;;;;;;;;;17.36;50.43;100216.72;5454351;26;19997;-81
2024/04/14 01:54:12;;;;;;;;;;;;;;;17.32;51.57;100220.81;5454339;26;20274;-81
2024/04/14 01:56:37;;;;;;;;;;;;;;;17.26;51.48;100213.63;5456403;26;19936;-81
2024/04/14 01:59:03;;;;;;;;;;;;;;;17.25;51.21;100219.16;5454635;26;19997;-81
2024/04/14 02:01:28;;;;;;;;;;;;;;;17.23;51.68;100222.03;5456692;26;19929;-81
2024/04/14 02:03:53;;;;;;;;;;;;;;;17.20;52.10;100224.31;5454364;26;19928;-79
2024/04/14 02:06:18;;;;;;;;;;;;;;;17.21;50.65;100223.28;5456234;26;19939;-80
2024/04/14 02:08:44;;;;;;;;;;;;;;;17.19;51.23;100220.81;5455764;26;19944;-81
2024/04/14 02:11:09;;;;;;;;;;;;;;;17.19;51.09;100228.00;5453831;26;20397;-81
2024/04/14 02:13:35;;;;;;;;;;;;;;;17.23;50.14;100222.03;5456254;26;19935;-81
2024/04/14 02:16:00;;;;;;;;;;;;;;;17.20;50.79;100219.78;5456403;26;19944;-79
2024/04/14 02:18:26;;;;;;;;;;;;;;;17.17;51.47;100222.88;5456226;26;19937;-80
2024/04/14 02:20:51;;;;;;;;;;;;;;;17.19;50.46;100220.00;5455713;26;19944;-80
2024/04/14 02:23:17;;;;;;;;;;;;;;;17.13;50.67;100221.63;5455858;26;19928;-80
2024/04/14 02:25:52;;;;;;;;;;;;;;;17.15;51.00;100222.25;5453852;26;20020;-79
2024/04/14 02:28:17;;;;;;;;;;;;;;;17.14;51.31;100223.28;5453745;26;20033;-81
2024/04/14 02:30:43;;;;;;;;;;;;;;;17.08;51.90;100227.53;5454122;26;19933;-81
2024/04/14 02:33:09;;;;;;;;;;;;;;;17.04;51.84;100223.63;5456248;26;19929;-81
2024/04/14 02:35:34;;;;;;;;;;;;;;;17.01;51.26;100224.03;5453793;26;19929;-80
2024/04/14 02:37:59;;;;;;;;;;;;;;;17.00;51.82;100227.75;5455237;26;20278;-81
2024/04/14 02:40:24;;;;;;;;;;;;;;;16.99;51.17;100228.75;5455599;26;19936;-81
2024/04/14 02:42:50;;;;;;;;;;;;;;;16.95;51.84;100224.84;5455883;26;19929;-79
2024/04/14 02:45:15;;;;;;;;;;;;;;;16.93;51.39;100226.09;5453769;26;19928;-80
2024/04/14 02:47:41;;;;;;;;;;;;;;;16.88;51.23;100221.34;5453422;26;20369;-79
2024/04/14 02:50:06;;;;;;;;;;;;;;;16.87;51.13;100225.06;5455783;26;19932;-80
2024/04/14 02:52:31;;;;;;;;;;;;;;;16.93;50.96;100228.75;5455667;26;19928;-80
2024/04/14 02:54:57;;;;;;;;;;;;;;;16.98;50.97;100221.78;5455450;26;19932;-81
2024/04/14 02:57:23;;;;;;;;;;;;;;;17.00;50.46;100226.91;5453570;26;20356;-80
2024/04/14 02:59:48;;;;;;;;;;;;;;;17.00;50.39;100221.59;5455242;26;20270;-79
2024/04/14 03:02:13;;;;;;;;;;;;;;;16.94;50.76;100222.41;5455842;26;19929;-79
2024/04/14 03:04:39;;;;;;;;;;;;;;;16.94;51.01;100231.22;5453662;26;19940;-80
2024/04/14 03:07:04;;;;;;;;;;;;;;;16.93;51.86;100226.91;5455755;26;19928;-81
2024/04/14 03:09:29;;;;;;;;;;;;;;;16.98;51.55;100226.31;5455555;26;19936;-81
2024/04/14 03:11:55;;;;;;;;;;;;;;;17.00;51.20;100234.91;5455667;26;19936;-80
2024/04/14 03:14:20;;;;;;;;;;;;;;;16.94;51.40;100233.88;5483455;26;19997;-80
2024/04/14 03:16:45;;;;;;;;;;;;;;;16.90;51.76;100227.31;5455140;26;19940;-80
2024/04/14 03:19:11;;;;;;;;;;;;;;;16.89;51.66;100230.19;5455251;26;19929;-79
2024/04/14 03:21:36;;;;;;;;;;;;;;;16.94;50.98;100230.41;5455161;26;19928;-81
2024/04/14 03:24:02;;;;;;;;;;;;;;;16.93;50.99;100232.25;5452484;26;19928;-81
2024/04/14 03:26:27;;;;;;;;;;;;;;;16.90;50.57;100237.97;5454958;26;19928;-81
2024/04/14 03:28:52;;;;;;;;;;;;;;;16.84;51.23;100242.28;5453080;26;19928;-80
2024/04/14 03:31:19;;;;;;;;;;;;;;;16.82;50.93;100243.50;5454791;26;19930;-80
2024/04/14 03:33:44;;;;;;;;;;;;;;;16.79;50.90;100249.25;5452977;26;19964;-79
2024/04/14 03:36:09;;;;;;;;;;;;;;;16.71;51.19;100247.59;5454860;26;19997;-79
2024/04/14 03:38:35;;;;;;;;;;;;;;;16.71;51.22;100252.91;5454612;26;20382;-81
2024/04/14 03:41:01;;;;;;;;;;;;;;;16.69;51.34;100254.13;5455299;26;20277;-79
2024/04/14 03:43:26;;;;;;;;;;;;;;;16.66;51.48;100258.03;5455011;26;19935;-81
2024/04/14 03:45:51;;;;;;;;;;;;;;;16.62;51.75;100255.94;5455289;26;19929;-79
2024/04/14 03:48:16;;;;;;;;;;;;;;;16.64;51.35;100251.22;5483217;26;20278;-81
2024/04/14 03:50:43;;;;;;;;;;;;;;;16.64;51.78;100253.88;5454930;26;19935;-79
2024/04/14 03:53:09;;;;;;;;;;;;;;;16.68;51.92;100257.81;5454876;26;19965;-80
2024/04/14 03:55:35;;;;;;;;;;;;;;;16.69;51.05;100256.81;5452594;26;19957;-81
2024/04/14 03:58:00;;;;;;;;;;;;;;;16.67;50.94;100254.34;5452445;26;19935;-81
2024/04/14 04:00:25;;;;;;;;;;;;;;;16.63;50.50;100253.06;5454065;26;19928;-81
2024/04/14 04:02:51;;;;;;;;;;;;;;;16.57;51.36;100250.38;5453952;26;20353;-80
2024/04/14 04:05:16;;;;;;;;;;;;;;;16.52;51.74;100248.31;5452362;26;19956;-81
2024/04/14 04:07:41;;;;;;;;;;;;;;;16.54;51.29;100240.94;5454571;26;19944;-81
2024/04/14 04:10:07;;;;;;;;;;;;;;;16.58;51.45;100241.34;5454283;26;19938;-81
2024/04/14 04:12:33;;;;;;;;;;;;;;;16.60;51.20;100233.97;5454233;26;19928;-81
2024/04/14 04:14:58;;;;;;;;;;;;;;;16.60;51.24;100242.78;5452676;26;19935;-81
2024/04/14 04:17:23;;;;;;;;;;;;;;;16.53;51.38;100239.28;5454125;26;19929;-79
2024/04/14 04:19:48;;;;;;;;;;;;;;;16.51;51.10;100242.16;5452896;26;20266;-80
2024/04/14 04:22:14;;;;;;;;;;;;;;;16.53;51.49;100245.44;5454091;26;19929;-80
2024/04/14 04:24:39;;;;;;;;;;;;;;;16.52;50.85;100253.63;5453945;26;19929;-81
2024/04/14 04:27:04;;;;;;;;;;;;;;;16.48;52.20;100253.22;5453860;26;19997;-81
2024/04/14 04:29:30;;;;;;;;;;;;;;;16.46;51.69;100252.59;5452161;26;19935;-81
2024/04/14 04:31:55;;;;;;;;;;;;;;;16.44;52.00;100248.47;5452233;26;19936;-81
2024/04/14 04:34:21;;;;;;;;;;;;;;;16.45;51.35;100256.28;5453793;26;19928;-79
2024/04/14 04:36:46;;;;;;;;;;;;;;;16.49;51.46;100251.38;5452011;26;19935;-81
2024/04/14 04:39:11;;;;;;;;;;;;;;;16.53;51.88;100255.28;5451822;26;19928;-79
2024/04/14 04:41:36;;;;;;;;;;;;;;;16.56;52.23;100252.22;5452080;26;20381;-80
2024/04/14 04:44:03;;;;;;;;;;;;;;;16.53;52.43;100253.44;5454032;26;19935;-79
2024/04/14 04:46:29;;;;;;;;;;;;;;;16.56;52.27;100254.88;5453707;26;19998;-81
2024/04/14 04:48:56;;;;;;;;;;;;;;;16.59;51.66;100251.81;5453896;26;19940;-80
2024/04/14 04:51:22;;;;;;;;;;;;;;;16.55;52.10;100260.41;5452039;26;20054;-79
2024/04/14 04:53:47;;;;;;;;;;;;;;;16.59;51.47;100254.47;5453537;26;19956;-81
2024/04/14 04:56:12;;;;;;;;;;;;;;;16.64;51.67;100256.53;5451712;26;19928;-81
2024/04/14 04:58:37;;;;;;;;;;;;;;;16.73;51.21;100258.03;5451713;26;20263;-81
2024/04/14 05:01:03;;;;;;;;;;;;;;;16.77;51.05;100257.44;5481863;26;19928;-80
2024/04/14 05:03:28;;;;;;;;;;;;;;;16.82;51.43;100259.50;5453503;26;19936;-80
2024/04/14 05:05:57;;;;;;;;;;;;;;;16.85;51.80;100253.78;5453221;26;19996;-80
2024/04/14 05:08:23;;;;;;;;;;;;;;;16.89;51.50;100259.53;5453415;26;19937;-80
2024/04/14 05:10:48;;;;;;;;;;;;;;;16.93;51.87;100250.09;5453285;26;19936;-79
2024/04/14 05:13:14;;;;;;;;;;;;;;;17.01;50.95;100258.72;5453688;26;19928;-80
2024/04/14 05:15:39;;;;;;;;;;;;;;;17.05;51.22;100253.81;5453181;26;20289;-79
2024/04/14 05:18:04;;;;;;;;;;;;;;;17.11;51.85;100256.53;5451865;26;19935;-80
2024/04/14 05:20:29;;;;;;;;;;;;;;;17.14;51.55;100253.44;5453389;26;19929;-80
2024/04/14 05:22:55;;;;;;;;;;;;;;;17.23;51.66;100255.91;5453006;26;19928;-79
2024/04/14 05:25:20;;;;;;;;;;;;;;;17.36;51.18;100256.75;5453379;26;20386;-80
2024/04/14 05:27:45;;;;;;;;;;;;;;;17.45;51.26;100255.53;5453234;26;19928;-80
2024/04/14 05:30:11;;;;;;;;;;;;;;;17.57;50.78;100255.72;5451246;26;19935;-79
2024/04/14 05:32:36;;;;;;;;;;;;;;;17.68;50.18;100255.13;5453048;26;19932;-79
2024/04/14 05:35:01;;;;;;;;;;;;;;;17.78;50.90;100257.38;5452741;26;19929;-78
2024/04/14 05:37:26;;;;;;;;;;;;;;;17.89;50.44;100255.94;5450976;26;20280;-80
2024/04/14 05:39:52;;;;;;;;;;;;;;;17.98;50.99;100258.19;5452634;26;20006;-79
2024/04/14 05:42:17;;;;;;;;;;;;;;;18.08;50.39;100261.25;5452884;26;20292;-80
2024/04/14 05:44:45;;;;;;;;;;;;;;;18.17;50.67;100248.47;5452427;26;20002;-79
2024/04/14 05:47:11;;;;;;;;;;;;;;;18.25;51.08;100260.78;5454215;26;20258;-80
2024/04/14 05:49:36;;;;;;;;;;;;;;;18.32;50.11;100253.56;5456188;26;19936;-80
2024/04/14 05:52:02;;;;;;;;;;;;;;;18.31;51.23;100255.44;5454518;26;19928;-79
2024/04/14 05:54:28;;;;;;;;;;;;;;;18.37;51.24;100253.75;5484942;26;20294;-81
2024/04/14 05:56:53;;;;;;;;;;;;;;;18.45;51.64;100258.88;5484655;26;19935;-80
2024/04/14 05:59:18;;;;;;;;;;;;;;;18.56;50.77;100254.72;5455900;26;20277;-81
2024/04/14 06:01:44;;;;;;;;;;;;;;;18.65;51.41;100258.84;5455874;26;19934;-79
2024/04/14 06:04:09;;;;;;;;;;;;;;;18.75;51.57;100264.56;5455734;26;20407;-79
2024/04/14 06:06:34;;;;;;;;;;;;;;;18.85;50.87;100262.25;5456053;26;19929;-80
2024/04/14 06:09:00;;;;;;;;;;;;;;;18.98;50.64;100264.03;5456136;26;20365;-79
2024/04/14 06:11:25;;;;;;;;;;;;;;;19.03;51.72;100258.84;5455836;26;19932;-81
2024/04/14 06:13:50;;;;;;;;;;;;;;;19.12;50.53;100262.91;5455720;26;19928;-81
2024/04/14 06:16:15;;;;;;;;;;;;;;;19.25;50.24;100267.34;5455697;26;20278;-81
2024/04/14 06:18:41;;;;;;;;;;;;;;;19.36;49.93;100259.47;5453886;26;19928;-80
2024/04/14 06:21:06;;;;;;;;;;;;;;;19.48;49.65;100261.44;5455743;26;19929;-81
2024/04/14 06:23:31;;;;;;;;;;;;;;;19.59;49.74;100264.25;5455605;26;20377;-79
2024/04/14 06:25:57;;;;;;;;;;;;;;;19.71;49.00;100258.16;5453959;26;19928;-81
2024/04/14 06:28:22;;;;;;;;;;;;;;;19.81;49.16;100253.13;5455266;26;19978;-79
2024/04/14 06:30:47;;;;;;;;;;;;;;;19.90;49.17;100254.47;5455827;26;19928;-81
2024/04/14 06:33:13;;;;;;;;;;;;;;;20.02;48.52;100252.69;5453842;26;20100;-81
2024/04/14 06:35:38;;;;;;;;;;;;;;;20.13;47.61;100251.16;5455474;26;20377;-81
2024/04/14 06:38:04;;;;;;;;;;;;;;;20.19;48.03;100250.28;5484006;26;19935;-79
2024/04/14 06:40:29;;;;;;;;;;;;;;;20.29;47.71;100258.63;5455878;26;20366;-80
2024/04/14 06:42:54;;;;;;;;;;;;;;;20.38;47.14;100253.78;5453897;26;19928;-80
2024/04/14 06:45:19;;;;;;;;;;;;;;;20.46;47.63;100257.00;5453545;26;19929;-80
2024/04/14 06:47:45;;;;;;;;;;;;;;;20.58;47.27;100257.88;5453876;26;19935;-80
2024/04/14 06:50:10;;;;;;;;;;;;;;;20.70;47.35;100260.63;5453406;26;19929;-80
2024/04/14 06:52:36;;;;;;;;;;;;;;;20.81;46.50;100257.19;5455977;26;19936;-81
2024/04/14 06:55:01;;;;;;;;;;;;;;;20.89;46.27;100261.41;5455694;26;19929;-80
2024/04/14 06:57:26;;;;;;;;;;;;;;;20.96;46.53;100261.31;5453367;26;19937;-81
2024/04/14 06:59:51;;;;;;;;;;;;;;;21.05;47.08;100262.66;5454961;26;20434;-80
2024/04/14 07:02:16;;;;;;;;;;;;;;;21.13;46.58;100268.50;5454950;26;19928;-81
2024/04/14 07:04:42;;;;;;;;;;;;;;;21.15;46.33;100270.97;5455493;26;19928;-80
2024/04/14 07:07:07;;;;;;;;;;;;;;;21.18;45.75;100268.63;5455256;26;19943;-81
2024/04/14 07:09:32;;;;;;;;;;;;;;;21.25;45.85;100260.50;5483641;26;19929;-80
2024/04/14 07:11:58;;;;;;;;;;;;;;;21.30;45.87;100262.50;5455312;26;19928;-82
2024/04/14 07:14:23;;;;;;;;;;;;;;;21.40;46.16;100260.88;5454703;26;20267;-81
2024/04/14 07:16:48;;;;;;;;;;;;;;;21.42;46.25;100260.66;5453098;26;19932;-81
2024/04/14 07:19:14;;;;;;;;;;;;;;;21.50;45.28;100258.44;5455322;26;19947;-79
2024/04/14 07:21:40;;;;;;;;;;;;;;;21.55;45.29;100258.59;5455445;26;19944;-80
2024/04/14 07:24:05;;;;;;;;;;;;;;;21.67;46.29;100255.09;5453065;26;19928;-80
2024/04/14 07:26:30;;;;;;;;;;;;;;;21.70;45.06;100250.06;5453122;26;19928;-79
2024/04/14 07:28:56;;;;;;;;;;;;;;;21.78;45.29;100256.97;5453542;26;19928;-79
2024/04/14 07:31:21;;;;;;;;;;;;;;;21.86;45.15;100262.81;5453073;26;19970;-80
2024/04/14 07:33:46;;;;;;;;;;;;;;;21.93;44.56;100251.13;5483470;26;19939;-80
2024/04/14 07:36:11;;;;;;;;;;;;;;;21.99;44.77;100256.38;5454898;26;20366;-79
2024/04/14 07:38:37;;;;;;;;;;;;;;;22.07;44.54;100250.66;5453162;26;19928;-79
2024/04/14 07:41:02;;;;;;;;;;;;;;;22.12;43.58;100250.78;5453213;26;20270;-83
2024/04/14 07:43:27;;;;;;;;;;;;;;;22.17;43.50;100250.88;5454877;26;20366;-82
2024/04/14 07:45:53;;;;;;;;;;;;;;;22.24;43.02;100244.56;5452990;26;19928;-79
2024/04/14 07:48:18;;;;;;;;;;;;;;;22.28;43.38;100249.22;5454898;26;19932;-81
2024/04/14 07:50:44;;;;;;;;;;;;;;;22.37;42.54;100255.91;5483006;26;19928;-80
2024/04/14 07:53:09;;;;;;;;;;;;;;;22.46;41.34;100259.84;5454639;26;19936;-80
2024/04/14 07:55:35;;;;;;;;;;;;;;;22.52;39.85;100261.59;5454789;26;20393;-80
2024/04/14 07:58:00;;;;;;;;;;;;;;;22.63;41.11;100246.44;5454978;26;19968;-79
2024/04/14 08:00:25;;;;;;;;;;;;;;;22.69;40.43;100247.38;5482868;26;19937;-81
2024/04/14 08:02:51;;;;;;;;;;;;;;;22.76;40.72;100253.44;5452519;26;19928;-79
2024/04/14 08:05:16;;;;;;;;;;;;;;;22.87;38.86;100249.91;5452607;26;20335;-80
2024/04/14 08:07:41;;;;;;;;;;;;;;;22.95;38.26;100254.06;5482781;26;19929;-79
2024/04/14 08:10:07;;;;;;;;;;;;;;;23.03;37.96;100253.69;5451641;26;19929;-81
2024/04/14 08:12:32;;;;;;;;;;;;;;;23.14;39.31;100255.53;5452041;26;19939;-79
2024/04/14 08:14:57;;;;;;;;;;;;;;;23.26;37.85;100250.88;5453863;26;19936;-80
2024/04/14 08:17:22;;;;;;;;;;;;;;;23.33;37.38;100248.84;5454073;26;20370;-80
2024/04/14 08:19:48;;;;;;;;;;;;;;;23.47;37.54;100252.03;5482843;26;20004;-81
2024/04/14 08:22:14;;;;;;;;;;;;;;;23.60;38.02;100251.72;5452174;26;19945;-80
2024/04/14 08:24:39;;;;;;;;;;;;;;;23.68;37.50;100245.91;5454210;26;19978;-80
2024/04/14 08:27:04;;;;;;;;;;;;;;;23.83;38.13;100239.97;5482322;26;20274;-79
2024/04/14 08:29:29;;;;;;;;;;;;;;;23.94;36.48;100236.34;5451728;26;19936;-80
2024/04/14 08:31:56;;;;;;;;;;;;;;;24.08;36.26;100244.88;5452271;26;19929;-80
2024/04/14 08:34:22;;;;;;;;;;;;;;;24.13;36.79;100242.25;5453758;26;20316;-79
2024/04/14 08:36:47;;;;;;;;;;;;;;;24.25;36.15;100242.13;5452067;26;19944;-81
2024/04/14 08:39:13;;;;;;;;;;;;;;;24.37;36.64;100240.16;5453656;26;19929;-81
2024/04/14 08:41:39;;;;;;;;;;;;;;;24.48;36.01;100239.22;5451725;26;20269;-80
2024/04/14 08:44:05;;;;;;;;;;;;;;;24.64;35.21;100237.53;5453408;26;19928;-81
2024/04/14 08:46:31;;;;;;;;;;;;;;;24.77;34.39;100239.81;5454025;26;19997;-79
2024/04/14 08:48:58;;;;;;;;;;;;;;;24.84;33.99;100242.31;5451729;26;20323;-81
2024/04/14 08:51:24;;;;;;;;;;;;;;;25.00;35.36;100239.53;5453760;26;20266;-79
2024/04/14 08:53:49;;;;;;;;;;;;;;;25.16;35.54;100226.97;5453321;26;19935;-81
2024/04/14 08:56:15;;;;;;;;;;;;;;;25.31;34.68;100234.44;5453237;26;19935;-80
2024/04/14 08:58:42;;;;;;;;;;;;;;;25.43;34.95;100221.56;5451579;26;19928;-80
2024/04/14 09:01:09;;;;;;;;;;;;;;;25.60;33.49;100221.41;5453717;26;19997;-80
2024/04/14 09:03:34;;;;;;;;;;;;;;;25.82;34.79;100227.50;5452791;26;20019;-81
2024/04/14 09:06:04;;;;;;;;;;;;;;;25.94;32.53;100228.13;5453799;26;19937;-80
2024/04/14 09:08:29;;;;;;;;;;;;;;;25.96;33.94;100230.56;5453587;26;19928;-79
2024/04/14 09:10:54;;;;;;;;;;;;;;;26.14;33.62;100227.44;5453741;26;19935;-81
2024/04/14 09:13:25;;;;;;;;;;;;;;;26.25;31.80;100220.19;5453420;26;19928;-80
2024/04/14 09:15:50;;;;;;;;;;;;;;;26.38;32.74;100219.72;5481643;26;19935;-78
2024/04/14 09:18:16;;;;;;;;;;;;;;;26.56;32.74;100213.81;5453045;26;19928;-81
2024/04/14 09:20:41;;;;;;;;;;;;;;;26.67;29.38;100203.00;5454327;26;20372;-79
2024/04/14 09:23:07;;;;;;;;;;;;;;;26.93;31.59;100215.53;5455432;26;19935;-79
2024/04/14 09:25:32;;;;;;;;;;;;;;;27.19;29.91;100208.25;5455270;26;19940;-79
2024/04/14 09:28:01;;;;;;;;;;;;;;;27.37;29.77;100204.16;5457021;26;19941;-79
2024/04/14 09:30:27;;;;;;;;;;;;;;;27.58;27.97;100204.97;5456930;26;19978;-81
2024/04/14 09:32:52;;;;;;;;;;;;;;;27.78;29.32;100207.69;5485320;26;19941;-80
2024/04/14 09:35:18;;;;;;;;;;;;;;;27.95;31.59;100204.66;5454860;26;19997;-80
2024/04/14 09:37:44;;;;;;;;;;;;;;;28.04;31.07;100205.69;5456843;26;19929;-79
2024/04/14 09:40:11;;;;;;;;;;;;;;;28.15;30.80;100202.66;5454592;26;19928;-81
2024/04/14 09:42:37;;;;;;;;;;;;;;;28.32;28.80;100199.66;5457066;26;19997;-81
2024/04/14 09:45:02;;;;;;;;;;;;;;;28.40;28.96;100185.50;5455080;26;19937;-80
2024/04/14 09:47:29;;;;;;;;;;;;;;;28.59;29.97;100187.56;5456583;26;19978;-80
2024/04/14 09:49:54;;;;;;;;;;;;;;;28.86;28.99;100187.94;5454928;26;19936;-80
2024/04/14 09:52:21;;;;;;;;;;;;;;;29.01;30.11;100181.59;5454576;26;19928;-80
2024/04/14 09:54:47;;;;;;;;;;;;;;;29.08;28.45;100177.47;5452966;26;20219;-81
2024/04/14 09:57:12;;;;;;;;;;;;;;;29.11;28.71;100184.25;5454472;26;19928;-80
2024/04/14 09:59:38;;;;;;;;;;;;;;;29.27;28.14;100163.97;5454478;26;20293;-81
2024/04/14 10:02:04;;;;;;;;;;;;;;;29.45;28.92;100170.63;5456810;26;19935;-80
2024/04/14 10:04:30;;;;;;;;;;;;;;;29.63;28.43;100163.63;5456872;26;19935;-81
2024/04/14 10:06:56;;;;;;;;;;;;;;;29.78;28.68;100162.66;5456636;26;20262;-79
2024/04/14 10:09:23;;;;;;;;;;;;;;;29.89;29.23;100156.81;5456320;26;20383;-79
2024/04/14 10:11:49;;;;;;;;;;;;;;;30.02;25.53;100158.84;5454494;26;19964;-81
2024/04/14 10:14:14;;;;;;;;;;;;;;;30.07;28.22;100157.97;5454968;26;20346;-79
2024/04/14 10:16:50;;;;;;;;;;;;;;;30.17;27.46;100157.84;5456059;26;19929;-80
2024/04/14 10:19:18;;;;;;;;;;;;;;;30.39;25.09;100151.81;5455824;26;19928;-80
2024/04/14 10:21:43;;;;;;;;;;;;;;;30.50;27.82;100147.06;5453628;26;19929;-81
2024/04/14 10:24:10;;;;;;;;;;;;;;;30.68;26.71;100140.81;5455523;26;19929;-80
2024/04/14 10:26:35;;;;;;;;;;;;;;;30.81;23.95;100144.69;5453665;26;19935;-81
2024/04/14 10:29:05;;;;;;;;;;;;;;;30.87;24.02;100144.31;5453508;26;19929;-79
2024/04/14 10:31:34;;;;;;;;;;;;;;;30.95;25.35;100138.19;5455145;26;19944;-79
2024/04/14 10:34:03;;;;;;;;;;;;;;;30.97;26.74;100137.88;5455522;26;20296;-79
2024/04/14 10:36:28;;;;;;;;;;;;;;;30.89;24.90;100133.91;5455654;26;19961;-79
2024/04/14 10:38:54;;;;;;;;;;;;;;;31.01;26.24;100129.91;5453690;26;19938;-79
2024/04/14 10:41:20;;;;;;;;;;;;;;;31.20;25.05;100117.03;5455666;26;19937;-79
2024/04/14 10:43:45;;;;;;;;;;;;;;;31.34;25.91;100126.09;5455903;26;19935;-80
2024/04/14 10:46:11;;;;;;;;;;;;;;;31.39;26.36;100123.25;5454279;26;19968;-79
2024/04/14 10:48:41;;;;;;;;;;;;;;;31.45;23.75;100121.25;5455410;26;19936;-80
2024/04/14 10:51:06;;;;;;;;;;;;;;;31.42;24.72;100119.94;5455029;26;19935;-80
2024/04/14 10:53:33;;;;;;;;;;;;;;;31.39;26.27;100122.44;5455452;26;19940;-78
2024/04/14 10:55:58;;;;;;;;;;;;;;;31.48;25.23;100124.19;5455290;26;19928;-79
2024/04/14 10:58:27;;;;;;;;;;;;;;;31.43;23.71;100116.09;5455235;26;19933;-78
2024/04/14 11:00:52;;;;;;;;;;;;;;;31.46;24.42;100117.41;5455252;26;19929;-79
2024/04/14 11:03:18;;;;;;;;;;;;;;;31.16;22.65;100110.56;5455062;26;19935;-80
2024/04/14 11:05:44;;;;;;;;;;;;;;;31.39;22.90;100112.34;5455444;26;19961;-79
2024/04/14 11:08:11;;;;;;;;;;;;;;;31.69;22.63;100107.38;5455146;26;19936;-79
2024/04/14 11:10:36;;;;;;;;;;;;;;;31.87;23.80;100101.84;5453201;26;19932;-79
2024/04/14 11:13:02;;;;;;;;;;;;;;;31.99;21.86;100106.81;5455213;26;20362;-79
2024/04/14 11:15:27;;;;;;;;;;;;;;;32.15;22.39;100105.34;5453042;26;20011;-80
2024/04/14 11:17:53;;;;;;;;;;;;;;;32.28;21.83;100098.25;5455481;26;19929;-79
2024/04/14 11:20:18;;;;;;;;;;;;;;;32.25;21.28;100096.13;5455661;26;19936;-79
2024/04/14 11:22:44;;;;;;;;;;;;;;;32.34;21.51;100097.03;5455382;26;19929;-79
2024/04/14 11:25:09;;;;;;;;;;;;;;;32.47;21.36;100090.69;5452708;26;20066;-79
2024/04/14 11:27:34;;;;;;;;;;;;;;;32.53;21.76;100096.84;5454673;26;19929;-78
2024/04/14 11:29:59;;;;;;;;;;;;;;;32.66;20.57;100084.22;5453005;26;20380;-80
2024/04/14 11:32:32;;;;;;;;;;;;;;;32.50;20.96;100081.88;5454723;26;19940;-80
2024/04/14 11:34:59;;;;;;;;;;;;;;;32.60;21.83;100077.28;5454719;26;19937;-81
2024/04/14 11:37:26;;;;;;;;;;;;;;;32.79;21.17;100075.19;5455112;26;19957;-80
2024/04/14 11:39:52;;;;;;;;;;;;;;;32.72;22.97;100070.13;5454860;26;19936;-79
2024/04/14 11:42:17;;;;;;;;;;;;;;;32.80;22.59;100068.59;5452849;26;19997;-80
2024/04/14 11:44:43;;;;;;;;;;;;;;;32.91;22.20;100066.41;5454006;26;20286;-78
2024/04/14 11:47:08;;;;;;;;;;;;;;;33.02;21.03;100057.63;5452654;26;20261;-79
2024/04/14 11:49:34;;;;;;;;;;;;;;;32.90;21.34;100057.41;5452536;26;20000;-78
2024/04/14 11:51:59;;;;;;;;;;;;;;;32.87;20.84;100049.81;5452425;26;19936;-78
2024/04/14 11:54:24;;;;;;;;;;;;;;;33.07;20.15;100051.19;5452519;26;19940;-79
2024/04/14 11:56:51;;;;;;;;;;;;;;;33.29;21.74;100040.19;5454516;26;19928;-79
2024/04/14 11:59:17;;;;;;;;;;;;;;;33.33;19.89;100048.59;5453992;26;19932;-80
2024/04/14 12:01:42;;;;;;;;;;;;;;;33.44;20.58;100028.84;5454251;26;19996;-78
2024/04/14 12:04:07;;;;;;;;;;;;;;;33.31;21.17;100034.41;5454222;26;19934;-80
2024/04/14 12:06:34;;;;;;;;;;;;;;;33.34;20.22;100029.13;5454154;26;20001;-79
2024/04/14 12:09:00;;;;;;;;;;;;;;;33.37;19.98;100023.00;5454145;26;19928;-79
2024/04/14 12:11:25;;;;;;;;;;;;;;;33.29;20.22;100021.03;5454515;26;19993;-79
2024/04/14 12:13:50;;;;;;;;;;;;;;;33.11;21.72;100013.88;5452082;26;19936;-79
2024/04/14 12:16:16;;;;;;;;;;;;;;;33.21;21.34;100008.13;5453949;26;19928;-80
2024/04/14 12:18:41;;;;;;;;;;;;;;;33.27;20.34;100017.78;5454162;26;19929;-79
2024/04/14 12:21:06;;;;;;;;;;;;;;;33.26;19.53;100013.44;5454033;26;19935;-80
2024/04/14 12:23:31;;;;;;;;;;;;;;;33.33;20.48;100004.81;5453812;26;19929;-80
2024/04/14 12:25:58;;;;;;;;;;;;;;;33.45;20.58;100005.03;5451205;26;20726;-78